Time;durP1;ratioP1;P1;durP2;ratioP2;P2;SDS_P1;SDS_P2;PMS_P1;PMS_P2;Temp;Humidity;BMP_temperature;BMP_pressure;BME280_temperature;BME280_humidity;BME280_pressure;Samples;Min_cycle;Max_cycle;Signal;HPM_P1;HPM_P2
2023/04/10 00:00:01;;;;;;;11.93;9.80;;;11.40;75.50;;;;;;5003876;28;20520;-81
2023/04/10 00:02:28;;;;;;;15.83;9.53;;;11.40;75.70;;;;;;5003160;28;20754;-82
2023/04/10 00:04:54;;;;;;;11.80;9.13;;;11.50;75.60;;;;;;5003277;28;20533;-81
2023/04/10 00:07:21;;;;;;;10.60;9.50;;;11.40;75.50;;;;;;5004039;28;20458;-81
2023/04/10 00:09:48;;;;;;;10.30;8.57;;;11.30;76.00;;;;;;5004261;28;20431;-81
2023/04/10 00:12:15;;;;;;;10.60;9.03;;;11.30;76.00;;;;;;5001128;28;20525;-81
2023/04/10 00:14:41;;;;;;;11.17;8.60;;;11.30;76.60;;;;;;4999913;28;20546;-82
2023/04/10 00:17:08;;;;;;;10.23;9.10;;;11.20;76.90;;;;;;4981783;28;20482;-83
2023/04/10 00:19:35;;;;;;;10.67;9.57;;;11.30;74.90;;;;;;4985898;28;21393;-81
2023/04/10 00:22:03;;;;;;;11.80;9.20;;;11.20;75.10;;;;;;4987071;28;20439;-82
2023/04/10 00:24:30;;;;;;;11.97;8.97;;;11.30;75.10;;;;;;4978701;28;20498;-82
2023/04/10 00:26:57;;;;;;;11.37;9.93;;;11.20;74.70;;;;;;4991770;28;20478;-80
2023/04/10 00:29:23;;;;;;;10.03;9.00;;;11.10;75.70;;;;;;4989983;28;20452;-81
2023/04/10 00:31:50;;;;;;;11.00;9.77;;;11.20;77.10;;;;;;4980416;28;20878;-83
2023/04/10 00:34:17;;;;;;;10.90;9.80;;;11.30;77.80;;;;;;4978010;28;20473;-81
2023/04/10 00:36:46;;;;;;;11.83;9.80;;;11.30;78.00;;;;;;4977970;28;20581;-82
2023/04/10 00:39:13;;;;;;;10.73;9.63;;;11.20;78.40;;;;;;4978657;28;20466;-81
2023/04/10 00:41:39;;;;;;;10.80;9.80;;;11.10;78.40;;;;;;4979229;28;20451;-83
2023/04/10 00:44:07;;;;;;;11.37;9.50;;;11.10;78.70;;;;;;4978605;28;20467;-81
2023/04/10 00:46:38;;;;;;;9.50;8.50;;;11.20;78.60;;;;;;4976957;28;20459;-82
2023/04/10 00:49:05;;;;;;;9.10;8.20;;;11.20;77.60;;;;;;4979323;28;20569;-81
2023/04/10 00:51:32;;;;;;;10.33;8.90;;;11.10;76.80;;;;;;4980111;28;20545;-83
2023/04/10 00:54:00;;;;;;;9.43;7.70;;;10.90;77.20;;;;;;4979515;28;20477;-82
2023/04/10 00:56:28;;;;;;;9.40;8.03;;;11.00;77.80;;;;;;4932212;28;20476;-81
2023/04/10 00:58:55;;;;;;;8.80;7.90;;;11.00;77.40;;;;;;4969830;28;20474;-84
2023/04/10 01:01:22;;;;;;;9.13;7.63;;;10.90;77.60;;;;;;4971097;28;21045;-83
2023/04/10 01:03:49;;;;;;;8.63;7.23;;;10.80;78.00;;;;;;4974636;28;20446;-83
2023/04/10 01:06:16;;;;;;;8.27;7.40;;;10.90;77.90;;;;;;4973756;28;20467;-81
2023/04/10 01:09:11;;;;;;;8.20;7.30;;;10.70;77.70;;;;;;4973139;28;21018;-84
2023/04/10 01:11:52;;;;;;;10.10;8.40;;;10.70;78.50;;;;;;4968193;28;20455;-82
2023/04/10 01:14:28;;;;;;;9.67;8.30;;;10.60;78.70;;;;;;4971335;28;20483;-82
2023/04/10 01:17:01;;;;;;;8.00;7.20;;;10.50;79.60;;;;;;4974120;28;20582;-82
2023/04/10 01:19:59;;;;;;;9.07;8.20;;;10.40;80.70;;;;;;4971420;28;20448;-83
2023/04/10 01:23:04;;;;;;;8.40;7.40;;;10.30;81.20;;;;;;4974884;28;20484;-82
2023/04/10 01:26:00;;;;;;;9.33;8.27;;;10.40;81.60;;;;;;4973620;28;21050;-81
2023/04/10 01:28:50;;;;;;;9.63;8.67;;;10.40;81.90;;;;;;4977622;28;20993;-83
2023/04/10 01:31:28;;;;;;;9.73;8.00;;;10.40;82.80;;;;;;4982830;28;20625;-80
2023/04/10 01:34:05;;;;;;;9.80;8.57;;;10.40;82.90;;;;;;4980737;28;20463;-83
2023/04/10 01:36:39;;;;;;;8.50;7.60;;;10.40;83.00;;;;;;4980279;28;20487;-82
2023/04/10 01:39:07;;;;;;;9.43;8.40;;;10.40;83.10;;;;;;4997490;28;20521;-82
2023/04/10 01:41:35;;;;;;;9.57;8.57;;;10.30;83.40;;;;;;4983079;28;20506;-83
2023/04/10 01:44:03;;;;;;;8.80;7.90;;;10.40;83.50;;;;;;5017824;28;20529;-80
2023/04/10 01:46:31;;;;;;;10.10;7.43;;;10.50;82.70;;;;;;5002924;28;20474;-83
2023/04/10 01:49:00;;;;;;;9.23;7.73;;;10.50;81.90;;;;;;5002085;28;20447;-81
2023/04/10 01:51:29;;;;;;;8.73;7.90;;;10.50;81.50;;;;;;5002465;28;20468;-81
2023/04/10 01:53:57;;;;;;;9.67;8.47;;;10.30;81.40;;;;;;4998624;28;20435;-81
2023/04/10 01:56:24;;;;;;;9.07;8.13;;;10.20;82.30;;;;;;4994055;28;20605;-80
2023/04/10 01:58:50;;;;;;;8.50;7.70;;;10.30;82.50;;;;;;4976281;28;20517;-81
2023/04/10 02:01:19;;;;;;;11.60;9.10;;;10.20;82.90;;;;;;4968302;28;21394;-82
2023/04/10 02:03:54;;;;;;;8.77;7.80;;;10.10;83.40;;;;;;4971467;28;20463;-82
2023/04/10 02:06:50;;;;;;;9.97;8.93;;;10.10;84.00;;;;;;4970874;28;20466;-81
2023/04/10 02:09:24;;;;;;;9.13;8.23;;;10.10;83.70;;;;;;4971749;28;20542;-79
2023/04/10 02:12:03;;;;;;;11.13;9.53;;;10.10;84.60;;;;;;4968203;28;20462;-82
2023/04/10 02:14:32;;;;;;;10.33;8.90;;;10.30;84.10;;;;;;4975845;28;20483;-81
2023/04/10 02:17:01;;;;;;;12.20;9.40;;;10.40;83.50;;;;;;4975363;28;20490;-80
2023/04/10 02:19:30;;;;;;;9.53;8.17;;;10.30;83.60;;;;;;4976205;28;20463;-81
2023/04/10 02:21:57;;;;;;;10.33;8.93;;;10.40;83.70;;;;;;4970913;28;20466;-80
2023/04/10 02:24:25;;;;;;;11.27;8.23;;;10.30;83.50;;;;;;4970953;28;20567;-81
2023/04/10 02:26:52;;;;;;;8.60;7.80;;;10.00;83.70;;;;;;4969596;28;20473;-81
2023/04/10 02:29:19;;;;;;;9.37;8.37;;;10.00;84.80;;;;;;4972295;28;20485;-83
2023/04/10 02:31:46;;;;;;;9.57;8.57;;;9.90;86.60;;;;;;4969723;28;20464;-80
2023/04/10 02:34:13;;;;;;;9.53;7.60;;;9.90;87.00;;;;;;4964783;28;20527;-81
2023/04/10 02:36:40;;;;;;;9.03;8.13;;;10.30;85.50;;;;;;4970552;28;20487;-80
2023/04/10 02:39:07;;;;;;;9.43;8.50;;;10.20;84.60;;;;;;4972617;28;20835;-81
2023/04/10 02:41:34;;;;;;;9.63;8.67;;;10.20;85.30;;;;;;4970769;28;20495;-80
2023/04/10 02:44:00;;;;;;;9.63;8.10;;;10.20;85.20;;;;;;4958216;28;20611;-82
2023/04/10 02:46:27;;;;;;;8.03;7.13;;;10.20;85.50;;;;;;4970160;28;20529;-80
2023/04/10 02:48:55;;;;;;;8.80;7.90;;;10.40;84.70;;;;;;4971488;28;20471;-80
2023/04/10 02:51:21;;;;;;;9.27;7.57;;;10.20;84.00;;;;;;4977829;28;21108;-80
2023/04/10 02:53:48;;;;;;;8.47;7.60;;;10.10;84.20;;;;;;4971871;28;20473;-81
2023/04/10 02:56:17;;;;;;;8.20;7.40;;;10.30;84.00;;;;;;4980858;28;20466;-80
2023/04/10 02:58:46;;;;;;;8.50;7.57;;;10.40;83.80;;;;;;4972141;28;20470;-83
2023/04/10 03:01:13;;;;;;;9.80;8.17;;;10.30;83.40;;;;;;4972023;28;20543;-81
2023/04/10 03:03:40;;;;;;;9.73;7.70;;;10.20;84.40;;;;;;4974154;28;20455;-83
2023/04/10 03:06:08;;;;;;;9.57;8.57;;;10.10;85.20;;;;;;4988302;28;21543;-82
2023/04/10 03:08:35;;;;;;;9.50;7.50;;;10.10;85.30;;;;;;4971343;28;20824;-80
2023/04/10 03:11:02;;;;;;;8.87;7.20;;;10.10;86.20;;;;;;4973188;28;20463;-81
2023/04/10 03:13:28;;;;;;;8.40;7.30;;;10.00;86.60;;;;;;4971769;28;20872;-83
2023/04/10 03:15:55;;;;;;;8.80;7.40;;;10.10;86.80;;;;;;4972817;28;20509;-82
2023/04/10 03:18:22;;;;;;;9.33;7.93;;;10.10;86.10;;;;;;4986426;28;20479;-82
2023/04/10 03:20:50;;;;;;;7.97;6.90;;;10.00;85.80;;;;;;4973095;28;21656;-81
2023/04/10 03:23:16;;;;;;;8.00;7.20;;;10.00;85.90;;;;;;4942626;28;20451;-82
2023/04/10 03:25:43;;;;;;;9.07;8.17;;;10.00;85.90;;;;;;4962799;28;20491;-80
2023/04/10 03:28:10;;;;;;;8.90;7.40;;;10.00;86.00;;;;;;4979085;28;20888;-81
2023/04/10 03:30:37;;;;;;;9.37;8.43;;;9.90;87.30;;;;;;4966104;28;20490;-82
2023/04/10 03:33:03;;;;;;;11.10;8.13;;;9.90;87.20;;;;;;4972408;28;20452;-81
2023/04/10 03:35:30;;;;;;;10.47;7.87;;;9.90;87.70;;;;;;4967872;28;20487;-82
2023/04/10 03:37:57;;;;;;;8.83;7.77;;;9.80;88.00;;;;;;4971869;28;21751;-82
2023/04/10 03:40:24;;;;;;;9.13;7.63;;;9.70;88.80;;;;;;4966318;28;20467;-81
2023/04/10 03:42:50;;;;;;;9.43;7.90;;;9.80;89.50;;;;;;4965465;28;20459;-81
2023/04/10 03:45:17;;;;;;;11.17;8.13;;;9.90;88.70;;;;;;4967967;28;20486;-81
2023/04/10 03:47:44;;;;;;;9.30;7.83;;;9.70;88.90;;;;;;4968521;28;20470;-82
2023/04/10 03:50:11;;;;;;;8.67;7.60;;;9.70;89.00;;;;;;4980515;28;20456;-81
2023/04/10 03:52:38;;;;;;;9.93;8.00;;;9.80;89.30;;;;;;4969672;28;20923;-82
2023/04/10 03:55:05;;;;;;;9.23;8.20;;;9.90;89.20;;;;;;4967291;28;20887;-83
2023/04/10 03:57:32;;;;;;;8.20;7.20;;;9.80;89.10;;;;;;4968645;28;20536;-80
2023/04/10 03:59:59;;;;;;;11.00;8.60;;;9.90;89.20;;;;;;4951615;28;20486;-81
2023/04/10 04:02:26;;;;;;;9.10;7.33;;;9.60;89.40;;;;;;4962367;28;20463;-82
2023/04/10 04:04:53;;;;;;;9.30;7.50;;;9.60;89.90;;;;;;4979054;28;20833;-81
2023/04/10 04:07:19;;;;;;;8.67;7.00;;;9.80;89.80;;;;;;4987183;28;20470;-80
2023/04/10 04:09:46;;;;;;;9.57;8.53;;;9.80;89.90;;;;;;4974253;28;20455;-80
2023/04/10 04:12:13;;;;;;;9.87;7.90;;;9.60;89.70;;;;;;4988652;28;20459;-81
2023/04/10 04:14:40;;;;;;;8.00;7.20;;;9.60;90.10;;;;;;4977206;28;20486;-83
2023/04/10 04:17:07;;;;;;;9.07;8.17;;;9.50;90.00;;;;;;4978473;28;20479;-81
2023/04/10 04:19:34;;;;;;;10.17;7.30;;;9.30;90.20;;;;;;4971886;28;21139;-81
2023/04/10 04:22:00;;;;;;;9.37;8.37;;;9.20;90.70;;;;;;4964225;28;20462;-80
2023/04/10 04:24:27;;;;;;;10.63;8.07;;;9.00;91.40;;;;;;4938305;28;20538;-80
2023/04/10 04:26:55;;;;;;;8.47;7.33;;;9.00;91.50;;;;;;4935486;28;20459;-83
2023/04/10 04:29:22;;;;;;;8.23;7.37;;;9.20;91.30;;;;;;4934477;28;21053;-83
2023/04/10 04:31:49;;;;;;;7.87;7.10;;;9.30;90.80;;;;;;4948438;28;21335;-83
2023/04/10 04:34:16;;;;;;;7.87;7.00;;;9.30;90.90;;;;;;4935144;28;22188;-82
2023/04/10 04:36:43;;;;;;;8.37;7.43;;;9.20;90.70;;;;;;4940282;28;21041;-84
2023/04/10 04:39:09;;;;;;;8.90;7.50;;;9.30;90.60;;;;;;4941770;28;21716;-82
2023/04/10 04:41:36;;;;;;;9.10;7.80;;;9.40;90.50;;;;;;4941235;28;20557;-81
2023/04/10 04:44:04;;;;;;;8.43;7.20;;;9.50;90.40;;;;;;4942111;28;20546;-80
2023/04/10 04:46:30;;;;;;;8.90;7.17;;;9.50;90.20;;;;;;4941355;28;20533;-79
2023/04/10 04:48:57;;;;;;;8.40;7.47;;;9.50;90.20;;;;;;4944843;28;20459;-80
2023/04/10 04:51:24;;;;;;;9.77;8.43;;;9.50;90.40;;;;;;4959473;28;20444;-81
2023/04/10 04:53:51;;;;;;;8.57;7.67;;;9.40;90.90;;;;;;4964580;28;20447;-79
2023/04/10 04:56:18;;;;;;;8.40;7.50;;;9.30;91.30;;;;;;4965271;28;20446;-80
2023/04/10 04:58:45;;;;;;;9.73;7.83;;;9.50;91.40;;;;;;4965203;28;20477;-80
2023/04/10 05:01:12;;;;;;;11.60;8.10;;;9.60;91.00;;;;;;4963652;28;20462;-81
2023/04/10 05:03:42;;;;;;;8.00;7.20;;;9.40;90.60;;;;;;4965366;28;20502;-79
2023/04/10 05:06:09;;;;;;;7.70;6.60;;;9.40;90.70;;;;;;4961620;28;20451;-79
2023/04/10 05:08:35;;;;;;;8.07;7.17;;;9.50;90.30;;;;;;4973759;28;20463;-81
2023/04/10 05:11:02;;;;;;;9.70;7.60;;;9.60;89.60;;;;;;4965030;28;20494;-80
2023/04/10 05:13:29;;;;;;;8.57;7.17;;;9.40;89.50;;;;;;4965765;28;20471;-81
2023/04/10 05:15:56;;;;;;;6.97;6.27;;;9.40;89.60;;;;;;4968843;28;20558;-82
2023/04/10 05:18:23;;;;;;;7.67;6.87;;;9.30;90.00;;;;;;4970598;28;20474;-81
2023/04/10 05:20:50;;;;;;;8.17;7.37;;;9.30;90.10;;;;;;4985793;28;20460;-82
2023/04/10 05:23:17;;;;;;;8.77;7.33;;;9.60;90.10;;;;;;4967388;28;20474;-82
2023/04/10 05:25:44;;;;;;;8.03;6.93;;;9.50;89.30;;;;;;4964124;28;20587;-81
2023/04/10 05:28:12;;;;;;;7.40;6.50;;;9.60;89.10;;;;;;4966220;28;20994;-80
2023/04/10 05:30:39;;;;;;;9.50;7.63;;;9.70;88.90;;;;;;4959717;28;20470;-81
2023/04/10 05:33:06;;;;;;;9.03;7.83;;;9.50;89.30;;;;;;4948268;28;20466;-80
2023/04/10 05:35:34;;;;;;;7.70;6.90;;;9.70;90.10;;;;;;4948484;28;20471;-81
2023/04/10 05:38:01;;;;;;;9.10;7.20;;;9.80;90.30;;;;;;4958767;28;20479;-79
2023/04/10 05:40:28;;;;;;;8.03;6.80;;;9.80;90.00;;;;;;4962301;28;20466;-81
2023/04/10 05:42:56;;;;;;;7.97;7.17;;;9.70;90.00;;;;;;4959883;28;20546;-81
2023/04/10 05:45:24;;;;;;;7.47;6.77;;;9.80;90.20;;;;;;4961050;28;20475;-80
2023/04/10 05:47:52;;;;;;;8.00;7.20;;;10.00;88.50;;;;;;4953986;28;20474;-80
2023/04/10 05:50:19;;;;;;;8.93;8.03;;;10.20;86.30;;;;;;4945180;28;20463;-81
2023/04/10 05:52:48;;;;;;;7.63;6.20;;;10.30;85.00;;;;;;4937162;28;21440;-82
2023/04/10 05:55:39;;;;;;;8.20;7.40;;;10.30;84.70;;;;;;4963128;28;20601;-81
2023/04/10 05:58:07;;;;;;;9.90;7.43;;;10.40;84.40;;;;;;4979580;28;20486;-81
2023/04/10 06:04:14;;;;;;;8.90;7.40;;;11.20;82.70;;;;;;5305282;22;20728;-80
2023/04/10 06:07:35;;;;;;;;;;;;;;;;;;;;;
2023/04/10 06:10:55;;;;;;;7.97;7.27;;;13.80;73.20;;;;;;4938511;28;21840;-82
2023/04/10 06:14:02;;;;;;;7.60;6.90;;;14.60;68.80;;;;;;4904761;28;20866;-82
2023/04/10 06:17:31;;;;;;;;;;;;;;;;;;;;;
2023/04/10 06:20:20;;;;;;;9.53;8.23;;;16.60;59.70;;;;;;4902398;29;20476;-82
2023/04/10 06:22:56;;;;;;;7.90;7.10;;;17.00;58.80;;;;;;4908899;29;20469;-83
2023/04/10 06:25:57;;;;;;;7.90;7.20;;;17.20;57.20;;;;;;4896956;29;20469;-80
2023/04/10 06:28:39;;;;;;;7.87;7.07;;;17.10;56.50;;;;;;4941827;29;20556;-81
2023/04/10 06:31:27;;;;;;;9.00;8.10;;;17.40;56.30;;;;;;4946156;28;20488;-82
2023/04/10 06:37:08;;;;;;;8.10;7.30;;;18.20;54.10;;;;;;4958865;29;21172;-81
2023/04/10 06:39:41;;;;;;;8.97;8.07;;;18.50;52.60;;;;;;4958895;29;20559;-82
2023/04/10 06:42:24;;;;;;;12.27;9.20;;;18.50;52.90;;;;;;4957917;28;20445;-83
2023/04/10 06:45:10;;;;;;;8.07;7.17;;;19.40;51.90;;;;;;4956938;28;20476;-82
2023/04/10 06:48:00;;;;;;;8.00;7.30;;;19.40;50.40;;;;;;4975561;28;21998;-81
2023/04/10 06:50:59;;;;;;;8.83;7.40;;;19.30;51.30;;;;;;4993555;28;20499;-81
2023/04/10 06:54:18;;;;;;;7.90;7.20;;;20.40;49.90;;;;;;4992185;28;20443;-81
2023/04/10 06:57:27;;;;;;;8.00;6.57;;;21.00;47.90;;;;;;4991698;28;20486;-84
2023/04/10 07:00:20;;;;;;;8.73;7.90;;;20.60;47.20;;;;;;4988006;28;20574;-81
2023/04/10 07:03:11;;;;;;;10.10;8.20;;;20.70;46.80;;;;;;4975095;28;20455;-81
2023/04/10 07:05:54;;;;;;;9.27;7.17;;;20.40;47.10;;;;;;4988247;28;20486;-83
2023/04/10 07:08:37;;;;;;;7.53;6.83;;;20.20;47.10;;;;;;4972523;28;20479;-85
2023/04/10 07:11:46;;;;;;;8.00;7.20;;;20.00;47.30;;;;;;4932535;28;20504;-82
2023/04/10 07:14:50;;;;;;;8.07;7.00;;;19.50;47.10;;;;;;4915022;29;20495;-83
2023/04/10 07:17:50;;;;;;;9.27;8.20;;;19.90;47.60;;;;;;4917935;29;20807;-83
2023/04/10 07:20:37;;;;;;;7.93;7.03;;;19.30;47.70;;;;;;4919226;29;20453;-83
2023/04/10 07:23:07;;;;;;;7.30;6.47;;;19.10;47.90;;;;;;4897273;28;20455;-82
2023/04/10 07:25:42;;;;;;;7.40;6.70;;;18.80;48.00;;;;;;4882524;28;20607;-82
2023/04/10 07:28:37;;;;;;;8.60;7.80;;;18.60;48.80;;;;;;5291694;22;20537;-82
2023/04/10 07:31:18;;;;;;;8.80;6.50;;;18.10;49.60;;;;;;4977911;28;20480;-83
2023/04/10 07:33:53;;;;;;;7.50;6.70;;;17.80;50.20;;;;;;4946683;28;20593;-83
2023/04/10 07:36:32;;;;;;;8.10;7.23;;;18.10;49.80;;;;;;4954245;28;20478;-82
2023/04/10 07:39:23;;;;;;;6.97;6.27;;;17.70;49.80;;;;;;4955749;28;20496;-81
2023/04/10 07:42:20;;;;;;;7.40;6.63;;;17.80;50.70;;;;;;4957350;28;21384;-84
2023/04/10 07:45:12;;;;;;;7.37;6.20;;;17.50;50.90;;;;;;4953153;28;20589;-83
2023/04/10 07:48:19;;;;;;;7.40;6.70;;;17.10;51.30;;;;;;4953697;28;20450;-83
2023/04/10 07:50:57;;;;;;;7.20;6.60;;;16.60;52.10;;;;;;4969813;28;20979;-82
2023/04/10 07:53:46;;;;;;;7.20;6.50;;;16.40;53.00;;;;;;4951118;28;20518;-82
2023/04/10 07:56:25;;;;;;;7.73;6.90;;;16.30;53.00;;;;;;4960231;28;20573;-84
2023/04/10 07:59:04;;;;;;;7.40;6.70;;;16.30;53.60;;;;;;4949908;28;20742;-82
2023/04/10 08:01:39;;;;;;;6.43;5.83;;;16.60;52.90;;;;;;4964461;28;20501;-80
2023/04/10 08:04:20;;;;;;;6.60;5.93;;;17.30;52.40;;;;;;4951781;28;20483;-80
2023/04/10 08:07:09;;;;;;;6.03;5.43;;;17.30;50.90;;;;;;4966054;28;20535;-83
2023/04/10 08:10:12;;;;;;;6.73;6.03;;;17.40;50.70;;;;;;4973337;28;20496;-83
2023/04/10 08:12:46;;;;;;;6.97;6.37;;;17.50;50.20;;;;;;4953108;28;20475;-83
2023/04/10 08:15:22;;;;;;;4.63;4.23;;;17.70;49.80;;;;;;4953417;28;21561;-81
2023/04/10 08:17:50;;;;;;;7.37;5.97;;;17.80;48.90;;;;;;4949978;28;20482;-81
2023/04/10 08:20:19;;;;;;;6.03;5.23;;;18.00;48.80;;;;;;5249223;23;21145;-81
2023/04/10 08:23:01;;;;;;;6.17;5.60;;;18.00;48.30;;;;;;4937761;28;20546;-81
2023/04/10 08:25:55;;;;;;;8.07;6.20;;;18.20;48.70;;;;;;4937309;28;20530;-82
2023/04/10 08:29:03;;;;;;;6.17;5.67;;;19.10;47.80;;;;;;4917304;28;20448;-80
2023/04/10 08:31:46;;;;;;;6.03;5.43;;;19.00;47.20;;;;;;4923256;28;20452;-80
2023/04/10 08:34:30;;;;;;;5.17;4.77;;;19.20;46.40;;;;;;4927887;28;20480;-80
2023/04/10 08:36:57;;;;;;;5.10;4.60;;;18.60;46.30;;;;;;4954442;28;20468;-82
2023/04/10 08:39:42;;;;;;;6.53;6.03;;;17.90;47.10;;;;;;4954823;28;21618;-82
2023/04/10 08:42:49;;;;;;;5.40;4.70;;;17.40;48.00;;;;;;4951089;28;20460;-82
2023/04/10 08:45:26;;;;;;;5.67;5.17;;;17.20;48.50;;;;;;4957359;28;20492;-82
2023/04/10 08:48:28;;;;;;;6.03;5.53;;;16.80;49.30;;;;;;4978052;28;20455;-82
2023/04/10 08:51:51;;;;;;;6.73;5.77;;;17.00;49.80;;;;;;4978898;28;20595;-81
2023/04/10 08:54:57;;;;;;;6.43;5.37;;;17.40;49.00;;;;;;4975679;28;20520;-81
2023/04/10 08:58:10;;;;;;;5.40;4.90;;;17.80;48.80;;;;;;4977932;28;20448;-82
2023/04/10 09:01:00;;;;;;;5.60;5.10;;;18.10;48.40;;;;;;4992879;28;20452;-82
2023/04/10 09:03:37;;;;;;;5.20;4.70;;;18.40;47.50;;;;;;4917462;29;20454;-83
2023/04/10 09:06:15;;;;;;;5.03;4.53;;;18.10;47.60;;;;;;4896488;29;21111;-82
2023/04/10 09:08:44;;;;;;;5.03;4.53;;;17.70;48.10;;;;;;4889317;29;21155;-83
2023/04/10 09:11:37;;;;;;;4.93;4.50;;;17.50;48.00;;;;;;4896798;29;20954;-82
2023/04/10 09:14:31;;;;;;;5.47;4.90;;;17.20;48.50;;;;;;4890478;29;20557;-80
2023/04/10 09:17:25;;;;;;;4.90;4.03;;;17.50;48.40;;;;;;4906473;29;20453;-81
2023/04/10 09:20:13;;;;;;;4.57;4.00;;;17.60;47.50;;;;;;4901991;29;20513;-84
2023/04/10 09:22:53;;;;;;;5.93;4.90;;;17.40;47.20;;;;;;4935678;28;20463;-84
2023/04/10 09:25:34;;;;;;;7.30;5.47;;;17.10;47.50;;;;;;4953700;28;21023;-83
2023/04/10 09:28:12;;;;;;;5.23;4.57;;;16.80;48.20;;;;;;4951310;28;21058;-84
2023/04/10 09:31:04;;;;;;;5.77;5.17;;;16.70;48.50;;;;;;4969403;28;20917;-84
2023/04/10 09:33:35;;;;;;;4.63;4.23;;;16.50;48.80;;;;;;4954978;28;20497;-84
2023/04/10 09:36:18;;;;;;;5.53;5.03;;;16.60;49.20;;;;;;4955435;28;20476;-81
2023/04/10 09:39:01;;;;;;;4.47;4.07;;;16.60;48.90;;;;;;4946545;28;20525;-84
2023/04/10 09:41:54;;;;;;;4.50;4.10;;;16.70;49.00;;;;;;4954396;28;20584;-83
2023/04/10 09:44:39;;;;;;;5.10;4.60;;;16.80;49.20;;;;;;4970928;28;20550;-83
2023/04/10 09:47:20;;;;;;;4.50;4.10;;;16.70;48.80;;;;;;4959569;28;20951;-84
2023/04/10 09:50:04;;;;;;;4.73;4.33;;;16.70;49.10;;;;;;4945076;28;20464;-83
2023/04/10 09:52:58;;;;;;;4.33;3.93;;;16.70;49.00;;;;;;4956010;28;20468;-83
2023/04/10 09:55:36;;;;;;;4.03;3.73;;;16.90;49.10;;;;;;4968409;28;20476;-81
2023/04/10 09:58:50;;;;;;;5.30;4.83;;;17.20;48.80;;;;;;4963648;28;20484;-83
2023/04/10 10:01:42;;;;;;;5.00;4.50;;;17.30;49.00;;;;;;4945635;28;20507;-85
2023/04/10 10:04:40;;;;;;;5.30;4.87;;;17.40;48.40;;;;;;4961313;28;20482;-83
2023/04/10 10:07:16;;;;;;;6.43;5.80;;;17.60;48.40;;;;;;4957445;28;20467;-82
2023/04/10 10:13:53;;;;;;;4.63;4.23;;;17.80;48.30;;;;;;4955118;28;20598;-82
2023/04/10 10:17:22;;;;;;;5.60;4.53;;;18.20;47.90;;;;;;4969367;28;20476;-84
2023/04/10 10:20:40;;;;;;;4.50;4.10;;;18.60;47.20;;;;;;4946062;28;20499;-83
2023/04/10 10:23:32;;;;;;;5.23;4.73;;;18.60;46.50;;;;;;4951029;28;20478;-83
2023/04/10 10:26:36;;;;;;;5.43;4.93;;;18.60;46.50;;;;;;4948939;28;20538;-85
2023/04/10 10:30:01;;;;;;;4.90;4.40;;;18.60;46.70;;;;;;4959017;28;20459;-84
2023/04/10 10:37:22;;;;;;;4.20;3.90;;;19.20;45.30;;;;;;4955473;28;20479;-82
2023/04/10 10:40:27;;;;;;;3.43;3.17;;;19.80;44.90;;;;;;4948128;28;20484;-84
2023/04/10 10:44:21;;;;;;;4.87;4.47;;;20.20;44.30;;;;;;4947002;28;20475;-84
2023/04/10 10:51:12;;;;;;;4.33;3.67;;;20.20;43.50;;;;;;4836797;29;20548;-81
2023/04/10 10:54:19;;;;;;;3.80;3.50;;;19.40;44.30;;;;;;4852700;29;20463;-80
2023/04/10 10:57:31;;;;;;;3.93;3.63;;;19.20;44.90;;;;;;4855496;29;20465;-79
2023/04/10 11:00:37;;;;;;;3.67;3.30;;;19.00;45.20;;;;;;4861002;29;20502;-85
2023/04/10 11:03:43;;;;;;;4.50;3.90;;;19.00;45.60;;;;;;4856284;29;20911;-82
2023/04/10 11:06:57;;;;;;;3.97;3.67;;;18.60;45.60;;;;;;4867946;29;20472;-84
2023/04/10 11:10:10;;;;;;;4.70;4.30;;;18.30;46.40;;;;;;4876181;29;20459;-84
2023/04/10 11:16:32;;;;;;;4.30;3.90;;;18.70;46.50;;;;;;4887585;29;20455;-82
2023/04/10 11:19:06;;;;;;;3.70;3.40;;;18.70;46.70;;;;;;4905070;29;20497;-82
2023/04/10 11:22:00;;;;;;;4.50;4.10;;;18.50;46.50;;;;;;4962869;28;20462;-82
2023/04/10 11:25:09;;;;;;;4.90;4.50;;;18.60;46.30;;;;;;4982324;28;20479;-81
2023/04/10 11:28:01;;;;;;;3.93;3.53;;;18.70;46.50;;;;;;4973162;28;21295;-82
2023/04/10 11:30:49;;;;;;;4.30;3.90;;;18.50;46.10;;;;;;4963523;28;20455;-84
2023/04/10 11:33:33;;;;;;;3.70;3.37;;;18.40;46.30;;;;;;4939211;28;20468;-83
2023/04/10 11:36:15;;;;;;;4.40;4.00;;;18.40;46.40;;;;;;4950692;28;20477;-83
2023/04/10 11:39:20;;;;;;;4.10;3.73;;;18.30;46.40;;;;;;4967637;28;20488;-83
2023/04/10 11:42:04;;;;;;;3.70;3.40;;;18.30;46.80;;;;;;4951193;28;20471;-83
2023/04/10 11:44:43;;;;;;;4.40;3.23;;;18.40;46.90;;;;;;4967477;28;20468;-82
2023/04/10 11:47:20;;;;;;;3.70;3.40;;;18.60;46.40;;;;;;4942740;28;20498;-81
2023/04/10 11:50:01;;;;;;;3.70;3.40;;;18.40;46.10;;;;;;4961540;28;20471;-82
2023/04/10 11:52:37;;;;;;;3.90;3.60;;;18.20;46.30;;;;;;4959378;28;20527;-84
2023/04/10 11:55:36;;;;;;;4.10;3.70;;;18.10;46.60;;;;;;4932196;28;20480;-83
2023/04/10 11:58:32;;;;;;;3.90;3.50;;;18.00;47.00;;;;;;4930792;28;20504;-84
2023/04/10 12:01:26;;;;;;;3.03;2.80;;;18.30;47.20;;;;;;4906461;29;20457;-84
2023/04/10 12:04:25;;;;;;;3.20;2.90;;;18.30;46.70;;;;;;4913721;28;20565;-84
2023/04/10 12:07:07;;;;;;;5.43;4.13;;;18.20;46.30;;;;;;4912564;28;20471;-82
2023/04/10 12:09:41;;;;;;;2.73;2.53;;;18.20;45.90;;;;;;4908964;29;20571;-82
2023/04/10 12:12:36;;;;;;;3.10;2.73;;;18.40;45.70;;;;;;4920040;28;20468;-82
2023/04/10 12:15:31;;;;;;;3.47;3.17;;;18.50;46.00;;;;;;4955145;28;20484;-84
2023/04/10 12:18:13;;;;;;;3.50;3.20;;;18.50;45.30;;;;;;4965618;28;20475;-82
2023/04/10 12:20:55;;;;;;;2.90;2.70;;;18.40;45.30;;;;;;4953209;28;20494;-83
2023/04/10 12:23:31;;;;;;;2.80;2.53;;;18.40;45.40;;;;;;4971214;28;20483;-84
2023/04/10 12:26:12;;;;;;;3.27;2.70;;;18.50;45.00;;;;;;4971824;28;21235;-85
2023/04/10 12:28:55;;;;;;;4.00;2.67;;;18.60;44.90;;;;;;4957850;28;20479;-83
2023/04/10 12:31:35;;;;;;;5.33;2.80;;;18.70;44.20;;;;;;4956867;28;20480;-85
2023/04/10 12:34:38;;;;;;;1.87;1.77;;;18.80;44.10;;;;;;4952294;28;20536;-84
2023/04/10 12:37:22;;;;;;;2.63;2.43;;;18.90;43.20;;;;;;4955778;28;20487;-84
2023/04/10 12:40:14;;;;;;;2.40;2.20;;;18.90;43.40;;;;;;4950245;28;20515;-81
2023/04/10 12:42:56;;;;;;;2.70;2.50;;;19.00;43.00;;;;;;4956886;28;20846;-83
2023/04/10 12:45:52;;;;;;;3.17;2.50;;;19.00;42.70;;;;;;4945741;28;20483;-82
2023/04/10 12:48:33;;;;;;;2.20;2.00;;;19.10;43.10;;;;;;4972895;28;20997;-83
2023/04/10 12:51:01;;;;;;;2.00;1.90;;;19.30;42.90;;;;;;4954963;28;20456;-83
2023/04/10 12:54:00;;;;;;;2.03;1.90;;;19.20;42.50;;;;;;4921173;28;20467;-83
2023/04/10 12:56:49;;;;;;;2.83;2.63;;;19.30;41.70;;;;;;4955606;28;20457;-83
2023/04/10 12:59:27;;;;;;;2.17;2.00;;;19.40;41.80;;;;;;4951664;28;20494;-83
2023/04/10 13:01:57;;;;;;;2.80;2.60;;;19.20;41.90;;;;;;4958706;28;20594;-82
2023/04/10 13:04:36;;;;;;;5.57;2.83;;;19.40;41.90;;;;;;4949892;28;20563;-82
2023/04/10 13:07:06;;;;;;;2.33;2.10;;;20.00;41.60;;;;;;4956809;28;20540;-85
2023/04/10 13:09:43;;;;;;;2.37;2.20;;;20.10;41.40;;;;;;4957091;28;20491;-83
2023/04/10 13:12:19;;;;;;;3.53;2.80;;;20.10;41.40;;;;;;4957061;28;20478;-83
2023/04/10 13:15:00;;;;;;;2.37;2.20;;;20.10;41.50;;;;;;4966355;28;20486;-82
2023/04/10 13:17:27;;;;;;;2.43;2.23;;;20.10;41.30;;;;;;4957976;28;20464;-83
2023/04/10 13:23:55;;;;;;;4.17;2.53;;;20.00;40.90;;;;;;4904334;29;20454;-85
2023/04/10 13:27:23;;;;;;;3.23;2.93;;;20.00;41.40;;;;;;4906760;29;21351;-83
2023/04/10 13:30:07;;;;;;;2.63;2.53;;;19.80;41.40;;;;;;4957906;28;20444;-83
2023/04/10 13:32:41;;;;;;;2.53;2.33;;;19.70;41.70;;;;;;4971523;28;20708;-84
2023/04/10 13:35:47;;;;;;;4.33;2.67;;;20.00;42.20;;;;;;4972355;28;20802;-83
2023/04/10 13:42:01;;;;;;;2.30;2.10;;;20.10;42.20;;;;;;4971156;28;20436;-82
2023/04/10 13:45:08;;;;;;;2.97;2.77;;;20.20;42.10;;;;;;4948030;28;20455;-85
2023/04/10 13:48:15;;;;;;;2.50;2.30;;;20.20;41.70;;;;;;4985835;28;20493;-84
2023/04/10 13:51:07;;;;;;;2.47;2.27;;;20.20;39.50;;;;;;4966562;28;20503;-82
2023/04/10 13:53:50;;;;;;;2.33;2.13;;;20.40;38.10;;;;;;4973239;28;20456;-83
2023/04/10 13:56:58;;;;;;;4.60;3.70;;;20.30;38.00;;;;;;4963553;28;20460;-82
2023/04/10 14:00:02;;;;;;;3.60;2.63;;;20.20;41.30;;;;;;4967764;28;20491;-83
2023/04/10 14:02:53;;;;;;;2.43;2.23;;;20.20;41.50;;;;;;4970451;28;20460;-84
2023/04/10 14:06:00;;;;;;;2.33;2.13;;;20.50;38.00;;;;;;4962918;28;20503;-82
2023/04/10 14:08:53;;;;;;;2.50;2.30;;;20.30;37.00;;;;;;4959162;28;20554;-84
2023/04/10 14:11:40;;;;;;;2.23;2.03;;;20.40;37.00;;;;;;4968690;28;20531;-82
2023/04/10 14:14:15;;;;;;;2.70;2.37;;;20.50;36.90;;;;;;4984174;28;20476;-84
2023/04/10 14:19:53;;;;;;;1.60;1.50;;;20.50;36.80;;;;;;4966501;28;20476;-84
2023/04/10 14:23:05;;;;;;;2.07;1.97;;;20.50;36.70;;;;;;4979386;28;20452;-84
2023/04/10 14:25:54;;;;;;;1.97;1.87;;;20.30;36.60;;;;;;4966367;28;20520;-84
2023/04/10 14:29:10;;;;;;;1.90;1.80;;;20.10;36.50;;;;;;4864120;29;20467;-82
2023/04/10 14:31:57;;;;;;;1.93;1.83;;;20.10;36.90;;;;;;4868497;29;20451;-82